createdAt,value
2022-12-11T00:00:15.387Z,57.40
2022-12-11T00:01:15.377Z,62.80
2022-12-11T00:02:15.472Z,56.90
2022-12-11T00:03:16.331Z,61.60
2022-12-11T00:04:15.348Z,59.40
2022-12-11T00:05:15.329Z,61.80
2022-12-11T00:06:15.328Z,63.00
2022-12-11T00:07:15.336Z,61.70
2022-12-11T00:08:15.358Z,61.40
2022-12-11T00:09:15.288Z,61.10
2022-12-11T00:10:15.310Z,59.50
2022-12-11T00:11:15.275Z,59.80
2022-12-11T00:12:15.310Z,64.00
2022-12-11T00:13:15.259Z,62.60
2022-12-11T00:14:15.259Z,65.60
2022-12-11T00:15:15.325Z,66.50
2022-12-11T00:16:15.337Z,66.30
2022-12-11T00:17:15.231Z,62.40
2022-12-11T00:18:15.223Z,62.20
2022-12-11T00:19:15.191Z,64.10
2022-12-11T00:20:15.192Z,64.10
2022-12-11T00:21:15.187Z,62.80
2022-12-11T00:22:15.190Z,59.30
2022-12-11T00:23:15.171Z,59.10
2022-12-11T00:24:15.154Z,59.20
2022-12-11T00:25:15.142Z,60.10
2022-12-11T00:26:15.132Z,52.80
2022-12-11T00:27:15.132Z,58.60
2022-12-11T00:28:15.115Z,60.70
2022-12-11T00:29:15.102Z,56.30
2022-12-11T00:30:15.112Z,52.50
2022-12-11T00:31:15.093Z,55.80
2022-12-11T00:32:15.140Z,62.50
2022-12-11T00:33:15.063Z,57.80
2022-12-11T00:34:15.061Z,56.10
2022-12-11T00:35:15.044Z,57.80
2022-12-11T00:36:15.035Z,51.60
2022-12-11T00:37:15.099Z,51.60
2022-12-11T00:38:15.013Z,46.80
2022-12-11T00:39:15.008Z,44.50
2022-12-11T00:40:14.996Z,44.80
2022-12-11T00:41:14.984Z,49.00
2022-12-11T00:42:14.997Z,47.40
2022-12-11T00:43:14.964Z,45.80
2022-12-11T00:44:14.956Z,51.80
2022-12-11T00:45:14.952Z,54.30
2022-12-11T00:46:14.982Z,46.30
2022-12-11T00:47:14.946Z,52.30
2022-12-11T00:48:14.925Z,46.10
2022-12-11T00:49:14.933Z,47.40
2022-12-11T00:50:14.907Z,46.40
2022-12-11T00:51:14.888Z,43.10
2022-12-11T00:52:14.898Z,45.00
2022-12-11T00:53:14.880Z,42.50
2022-12-11T00:54:14.857Z,46.00
2022-12-11T00:55:14.857Z,48.80
2022-12-11T00:56:14.837Z,49.00
2022-12-11T00:57:14.848Z,43.40
2022-12-11T00:58:14.818Z,44.20
2022-12-11T00:59:14.820Z,51.30
2022-12-11T01:00:14.798Z,45.20
2022-12-11T01:01:14.870Z,46.90
2022-12-11T01:02:14.800Z,47.30
2022-12-11T01:03:14.831Z,45.90
2022-12-11T01:04:14.761Z,41.50
2022-12-11T01:05:14.757Z,43.60
2022-12-11T01:06:14.740Z,42.10
2022-12-11T01:07:14.751Z,37.20
2022-12-11T01:08:14.781Z,41.90
2022-12-11T01:09:14.713Z,36.50
2022-12-11T01:10:14.746Z,37.30
2022-12-11T01:11:14.701Z,38.50
2022-12-11T01:12:14.704Z,36.20
2022-12-11T01:13:14.683Z,40.30
2022-12-11T01:14:14.673Z,40.70
2022-12-11T01:15:14.663Z,40.80
2022-12-11T01:16:14.731Z,44.10
2022-12-11T01:17:14.654Z,39.80
2022-12-11T01:18:14.622Z,44.70
2022-12-11T01:19:14.625Z,46.50
2022-12-11T01:20:14.601Z,42.00
2022-12-11T01:21:14.597Z,39.70
2022-12-11T01:22:14.595Z,44.50
2022-12-11T01:23:14.588Z,48.00
2022-12-11T01:24:14.563Z,43.20
2022-12-11T01:25:14.564Z,43.10
2022-12-11T01:26:14.552Z,44.00
2022-12-11T01:27:14.555Z,48.00
2022-12-11T01:28:14.525Z,42.90
2022-12-11T01:29:14.515Z,49.30
2022-12-11T01:30:14.513Z,42.50
2022-12-11T01:31:14.559Z,49.50
2022-12-11T01:32:14.498Z,45.30
2022-12-11T01:33:14.477Z,45.10
2022-12-11T01:34:14.469Z,45.70
2022-12-11T01:35:14.458Z,45.30
2022-12-11T01:36:14.455Z,45.00
2022-12-11T01:37:14.459Z,45.40
2022-12-11T01:38:14.428Z,50.90
2022-12-11T01:39:14.418Z,48.70
2022-12-11T01:40:14.408Z,50.30
2022-12-11T01:41:14.399Z,44.10
2022-12-11T01:42:14.408Z,51.20
2022-12-11T01:43:14.390Z,51.40
2022-12-11T01:44:14.369Z,45.60
2022-12-11T01:45:14.367Z,46.90
2022-12-11T01:46:14.382Z,47.50
2022-12-11T01:47:14.368Z,44.00
2022-12-11T01:48:14.329Z,44.30
2022-12-11T01:49:14.327Z,45.70
2022-12-11T01:50:14.307Z,45.30
2022-12-11T01:51:14.318Z,38.80
2022-12-11T01:52:14.320Z,44.10
2022-12-11T01:53:14.290Z,39.70
2022-12-11T01:54:14.291Z,43.80
2022-12-11T01:55:14.263Z,38.80
2022-12-11T01:56:14.252Z,43.90
2022-12-11T01:57:14.271Z,46.70
2022-12-11T01:58:14.231Z,45.70
2022-12-11T01:59:14.254Z,42.50
2022-12-11T02:00:14.221Z,41.00
2022-12-11T02:01:14.247Z,43.90
2022-12-11T02:02:14.271Z,43.90
2022-12-11T02:03:14.192Z,43.40
2022-12-11T02:04:14.173Z,41.80
2022-12-11T02:05:14.183Z,40.90
2022-12-11T02:06:14.144Z,42.00
2022-12-11T02:07:14.165Z,38.40
2022-12-11T02:08:14.206Z,42.10
2022-12-11T02:09:14.130Z,39.80
2022-12-11T02:10:14.139Z,43.00
2022-12-11T02:11:14.122Z,40.00
2022-12-11T02:12:14.137Z,37.90
2022-12-11T02:13:14.085Z,43.40
2022-12-11T02:14:14.096Z,36.60
2022-12-11T02:15:14.074Z,40.90
2022-12-11T02:16:14.112Z,38.00
2022-12-11T02:17:14.065Z,40.40
2022-12-11T02:18:14.036Z,39.90
2022-12-11T02:19:14.027Z,42.10
2022-12-11T02:20:14.025Z,37.60
2022-12-11T02:21:14.024Z,41.00
2022-12-11T02:22:14.017Z,39.20
2022-12-11T02:23:13.997Z,35.40
2022-12-11T02:24:13.979Z,37.30
2022-12-11T02:25:13.978Z,38.20
2022-12-11T02:26:13.957Z,36.40
2022-12-11T02:27:13.951Z,34.90
2022-12-11T02:28:13.958Z,33.90
2022-12-11T02:29:13.943Z,37.10
2022-12-11T02:30:13.928Z,28.70
2022-12-11T02:31:13.976Z,26.80
2022-12-11T02:32:13.904Z,28.70
2022-12-11T02:33:13.909Z,25.10
2022-12-11T02:34:13.882Z,27.70
2022-12-11T02:35:14.024Z,25.20
2022-12-11T02:36:13.859Z,28.00
2022-12-11T02:37:13.855Z,27.70
2022-12-11T02:38:13.872Z,25.00
2022-12-11T02:39:13.846Z,25.80
2022-12-11T02:40:13.822Z,25.00
2022-12-11T02:41:13.983Z,29.60
2022-12-11T02:42:13.801Z,27.00
2022-12-11T02:43:13.812Z,24.30
2022-12-11T02:44:13.790Z,22.60
2022-12-11T02:45:13.868Z,26.80
2022-12-11T02:46:13.857Z,21.90
2022-12-11T02:47:13.769Z,26.00
2022-12-11T02:48:13.764Z,23.80
2022-12-11T02:49:13.744Z,23.10
2022-12-11T02:50:13.724Z,24.30
2022-12-11T02:51:13.725Z,23.90
2022-12-11T02:52:13.712Z,26.50
2022-12-11T02:53:13.713Z,27.00
2022-12-11T02:54:13.681Z,21.70
2022-12-11T02:55:13.679Z,24.60
2022-12-11T02:56:13.662Z,24.80
2022-12-11T02:57:13.662Z,26.50
2022-12-11T02:58:13.655Z,26.80
2022-12-11T02:59:13.648Z,27.90
2022-12-11T03:00:13.626Z,24.80
2022-12-11T03:01:13.755Z,22.70
2022-12-11T03:02:13.670Z,23.50
2022-12-11T03:03:13.621Z,22.60
2022-12-11T03:04:13.586Z,29.40
2022-12-11T03:05:13.586Z,24.20
2022-12-11T03:06:13.576Z,28.10
2022-12-11T03:07:13.557Z,22.80
2022-12-11T03:08:13.575Z,26.00
2022-12-11T03:09:13.537Z,27.90
2022-12-11T03:10:13.528Z,25.70
2022-12-11T03:11:13.524Z,22.90
2022-12-11T03:12:13.518Z,23.30
2022-12-11T03:13:13.517Z,21.20
2022-12-11T03:14:13.489Z,22.50
2022-12-11T03:15:13.616Z,25.80
2022-12-11T03:16:13.518Z,26.30
2022-12-11T03:17:13.458Z,24.80
2022-12-11T03:18:13.458Z,23.80
2022-12-11T03:19:13.440Z,24.70
2022-12-11T03:20:13.439Z,26.10
2022-12-11T03:21:13.428Z,24.70
2022-12-11T03:22:13.408Z,25.00
2022-12-11T03:23:13.418Z,28.00
2022-12-11T03:24:13.401Z,26.10
2022-12-11T03:25:13.641Z,22.80
2022-12-11T03:26:13.368Z,22.80
2022-12-11T03:27:13.362Z,23.10
2022-12-11T03:28:13.361Z,27.30
2022-12-11T03:29:13.342Z,29.70
2022-12-11T03:30:13.363Z,24.70
2022-12-11T03:31:13.352Z,24.00
2022-12-11T03:32:13.306Z,27.80
2022-12-11T03:33:13.324Z,27.70
2022-12-11T03:34:13.289Z,24.70
2022-12-11T03:35:13.554Z,25.00
2022-12-11T03:36:13.263Z,24.80
2022-12-11T03:37:13.263Z,28.70
2022-12-11T03:38:13.264Z,26.50
2022-12-11T03:39:13.244Z,22.90
2022-12-11T03:40:13.231Z,27.70
2022-12-11T03:41:13.229Z,28.80
2022-12-11T03:42:13.213Z,22.80
2022-12-11T03:43:13.224Z,27.20
2022-12-11T03:44:13.194Z,26.70
2022-12-11T03:45:13.447Z,23.00
2022-12-11T03:46:13.231Z,25.90
2022-12-11T03:47:13.166Z,30.50
2022-12-11T03:48:13.166Z,28.70
2022-12-11T03:49:13.145Z,22.90
2022-12-11T03:50:13.130Z,23.00
2022-12-11T03:51:13.126Z,26.90
2022-12-11T03:52:13.114Z,31.40
2022-12-11T03:53:13.131Z,23.50
2022-12-11T03:54:13.096Z,22.70
2022-12-11T03:55:13.333Z,24.60
2022-12-11T03:56:13.078Z,25.60
2022-12-11T03:57:13.068Z,24.80
2022-12-11T03:58:13.068Z,25.40
2022-12-11T03:59:13.049Z,24.60
2022-12-11T04:00:13.029Z,26.10
2022-12-11T04:01:13.057Z,24.10
2022-12-11T04:02:13.053Z,25.80
2022-12-11T04:03:14.121Z,26.80
2022-12-11T04:04:13.020Z,29.40
2022-12-11T04:05:13.284Z,23.80
2022-12-11T04:06:12.969Z,26.00
2022-12-11T04:07:12.977Z,27.70
2022-12-11T04:08:13.029Z,29.40
2022-12-11T04:09:12.953Z,26.00
2022-12-11T04:10:12.940Z,25.50
2022-12-11T04:11:12.933Z,28.00
2022-12-11T04:12:12.911Z,31.30
2022-12-11T04:13:12.931Z,25.90
2022-12-11T04:14:12.891Z,27.50
2022-12-11T04:15:13.097Z,27.30
2022-12-11T04:16:12.877Z,29.50
2022-12-11T04:17:12.872Z,25.10
2022-12-11T04:18:12.873Z,24.70
2022-12-11T04:19:12.865Z,29.10
2022-12-11T04:20:12.835Z,26.10
2022-12-11T04:21:12.832Z,28.20
2022-12-11T04:22:12.816Z,26.90
2022-12-11T04:23:12.835Z,26.90
2022-12-11T04:24:12.794Z,25.10
2022-12-11T04:25:12.933Z,27.80
2022-12-11T04:26:12.783Z,24.70
2022-12-11T04:27:12.765Z,26.30
2022-12-11T04:28:12.785Z,25.70
2022-12-11T04:29:12.752Z,33.70
2022-12-11T04:30:12.739Z,31.30
2022-12-11T04:31:12.774Z,29.70
2022-12-11T04:32:12.724Z,30.50
2022-12-11T04:33:12.725Z,28.00
2022-12-11T04:34:12.696Z,30.20
2022-12-11T04:35:12.982Z,29.80
2022-12-11T04:36:12.675Z,28.60
2022-12-11T04:37:12.674Z,28.40
2022-12-11T04:38:12.678Z,30.50
2022-12-11T04:39:12.658Z,28.40
2022-12-11T04:40:12.649Z,34.20
2022-12-11T04:41:12.635Z,29.00
2022-12-11T04:42:12.618Z,29.10
2022-12-11T04:43:12.628Z,28.50
2022-12-11T04:44:12.598Z,27.80
2022-12-11T04:45:12.925Z,27.50
2022-12-11T04:46:12.626Z,36.10
2022-12-11T04:47:12.578Z,30.20
2022-12-11T04:48:12.586Z,30.50
2022-12-11T04:49:12.558Z,30.00
2022-12-11T04:50:12.548Z,33.90
2022-12-11T04:51:12.529Z,27.30
2022-12-11T04:52:12.531Z,29.20
2022-12-11T04:53:12.538Z,34.70
2022-12-11T04:54:12.501Z,31.80
2022-12-11T04:55:12.849Z,29.50
2022-12-11T04:56:12.480Z,30.80
2022-12-11T04:57:12.524Z,28.70
2022-12-11T04:58:12.480Z,31.40
2022-12-11T04:59:12.452Z,36.00
2022-12-11T05:00:12.441Z,32.90
2022-12-11T05:01:12.518Z,34.40
2022-12-11T05:02:12.422Z,28.50
2022-12-11T05:03:12.525Z,26.50
2022-12-11T05:04:12.402Z,29.20
2022-12-11T05:05:12.730Z,38.20
2022-12-11T05:06:12.389Z,33.20
2022-12-11T05:07:12.373Z,38.40
2022-12-11T05:08:12.408Z,29.90
2022-12-11T05:09:12.352Z,29.10
2022-12-11T05:10:12.373Z,30.80
2022-12-11T05:11:12.352Z,29.90
2022-12-11T05:12:12.325Z,30.80
2022-12-11T05:13:12.335Z,33.00
2022-12-11T05:14:12.315Z,33.60
2022-12-11T05:15:12.458Z,33.90
2022-12-11T05:16:12.825Z,35.30
2022-12-11T05:17:12.284Z,30.70
2022-12-11T05:18:12.295Z,34.70
2022-12-11T05:19:12.255Z,29.00
2022-12-11T05:20:12.253Z,31.90
2022-12-11T05:21:12.255Z,30.30
2022-12-11T05:22:12.232Z,31.10
2022-12-11T05:23:12.221Z,31.60
2022-12-11T05:24:12.227Z,29.20
2022-12-11T05:25:12.465Z,32.00
2022-12-11T05:26:12.196Z,33.70
2022-12-11T05:27:12.180Z,27.60
2022-12-11T05:28:12.178Z,30.80
2022-12-11T05:29:12.179Z,30.70
2022-12-11T05:30:12.148Z,35.30
2022-12-11T05:31:12.228Z,31.00
2022-12-11T05:32:12.147Z,35.10
2022-12-11T05:33:12.136Z,36.80
2022-12-11T05:34:12.129Z,34.30
2022-12-11T05:35:12.435Z,39.00
2022-12-11T05:36:12.101Z,38.40
2022-12-11T05:37:12.080Z,41.10
2022-12-11T05:38:12.077Z,35.00
2022-12-11T05:39:12.078Z,31.30
2022-12-11T05:40:12.059Z,35.90
2022-12-11T05:41:12.049Z,35.50
2022-12-11T05:42:12.040Z,36.20
2022-12-11T05:43:12.031Z,36.20
2022-12-11T05:44:12.032Z,33.90
2022-12-11T05:45:12.274Z,34.90
2022-12-11T05:46:12.115Z,34.30
2022-12-11T05:47:11.981Z,34.40
2022-12-11T05:48:11.973Z,34.70
2022-12-11T05:49:11.983Z,39.70
2022-12-11T05:50:11.952Z,37.90
2022-12-11T05:51:11.953Z,36.80
2022-12-11T05:52:11.933Z,34.70
2022-12-11T05:53:11.925Z,35.20
2022-12-11T05:54:11.944Z,31.10
2022-12-11T05:55:12.082Z,38.20
2022-12-11T05:56:11.905Z,39.80
2022-12-11T05:57:11.883Z,36.70
2022-12-11T05:58:11.874Z,42.10
2022-12-11T05:59:11.883Z,42.90
2022-12-11T06:00:11.864Z,40.80
2022-12-11T06:01:11.844Z,34.20
2022-12-11T06:02:11.956Z,33.00
2022-12-11T06:03:11.967Z,32.40
2022-12-11T06:04:11.834Z,34.70
2022-12-11T06:05:11.945Z,30.80
2022-12-11T06:06:11.795Z,30.10
2022-12-11T06:07:11.786Z,37.90
2022-12-11T06:08:11.817Z,37.10
2022-12-11T06:09:11.798Z,35.60
2022-12-11T06:10:11.809Z,34.60
2022-12-11T06:11:11.747Z,39.80
2022-12-11T06:12:11.745Z,31.90
2022-12-11T06:13:11.726Z,32.30
2022-12-11T06:14:11.738Z,32.10
2022-12-11T06:15:11.864Z,33.30
2022-12-11T06:16:11.753Z,35.70
2022-12-11T06:17:11.690Z,41.80
2022-12-11T06:18:11.679Z,56.70
2022-12-11T06:19:11.689Z,66.40
2022-12-11T06:20:11.670Z,60.50
2022-12-11T06:21:11.649Z,58.20
2022-12-11T06:22:11.646Z,51.90
2022-12-11T06:23:11.628Z,48.60
2022-12-11T06:24:11.640Z,47.30
2022-12-11T06:25:11.871Z,40.80
2022-12-11T06:26:11.776Z,42.30
2022-12-11T06:27:11.588Z,38.30
2022-12-11T06:28:11.588Z,43.30
2022-12-11T06:29:13.148Z,40.60
2022-12-11T06:30:11.562Z,43.70
2022-12-11T06:31:11.601Z,44.20
2022-12-11T06:32:11.549Z,35.40
2022-12-11T06:33:11.530Z,32.90
2022-12-11T06:34:11.543Z,41.30
2022-12-11T06:35:11.752Z,35.50
2022-12-11T06:36:11.501Z,37.90
2022-12-11T06:37:11.482Z,36.50
2022-12-11T06:38:12.324Z,39.40
2022-12-11T06:39:11.484Z,31.60
2022-12-11T06:40:11.473Z,30.90
2022-12-11T06:41:11.573Z,35.10
2022-12-11T06:42:11.443Z,36.90
2022-12-11T06:43:11.432Z,34.70
2022-12-11T06:44:11.445Z,34.20
2022-12-11T06:45:11.595Z,38.00
2022-12-11T06:46:11.444Z,42.20
2022-12-11T06:47:11.384Z,43.00
2022-12-11T06:48:11.385Z,36.10
2022-12-11T06:49:11.392Z,37.10
2022-12-11T06:50:11.375Z,37.50
2022-12-11T06:51:11.357Z,36.80
2022-12-11T06:52:16.618Z,32.80
2022-12-11T06:53:12.327Z,35.10
2022-12-11T06:54:11.356Z,39.60
2022-12-11T06:55:11.502Z,34.60
2022-12-11T06:56:11.315Z,32.70
2022-12-11T06:57:11.296Z,36.70
2022-12-11T06:58:11.286Z,36.10
2022-12-11T06:59:11.288Z,40.20
2022-12-11T07:00:11.227Z,35.70
2022-12-11T07:01:11.233Z,32.50
2022-12-11T07:02:11.269Z,38.50
2022-12-11T07:03:11.229Z,39.80
2022-12-11T07:04:11.248Z,39.80
2022-12-11T07:05:11.619Z,33.60
2022-12-11T07:06:11.208Z,35.60
2022-12-11T07:07:11.191Z,35.50
2022-12-11T07:08:11.238Z,36.00
2022-12-11T07:09:11.194Z,31.10
2022-12-11T07:10:11.169Z,36.30
2022-12-11T07:11:11.150Z,34.90
2022-12-11T07:12:11.151Z,36.10
2022-12-11T07:13:11.101Z,33.60
2022-12-11T07:14:11.150Z,33.70
2022-12-11T07:15:11.356Z,35.60
2022-12-11T07:16:11.298Z,37.30
2022-12-11T07:17:11.052Z,34.80
2022-12-11T07:18:11.042Z,36.70
2022-12-11T07:19:11.052Z,38.50
2022-12-11T07:20:11.012Z,36.30
2022-12-11T07:21:11.002Z,37.20
2022-12-11T07:22:11.001Z,34.80
2022-12-11T07:23:10.982Z,39.20
2022-12-11T07:24:10.993Z,48.00
2022-12-11T07:25:11.210Z,42.40
2022-12-11T07:26:10.962Z,47.10
2022-12-11T07:27:10.942Z,48.70
2022-12-11T07:28:15.213Z,42.70
2022-12-11T07:29:11.936Z,42.10
2022-12-11T07:30:10.924Z,39.70
2022-12-11T07:31:10.914Z,37.80
2022-12-11T07:32:11.037Z,37.40
2022-12-11T07:33:10.887Z,39.60
2022-12-11T07:34:10.906Z,43.80
2022-12-11T07:35:11.166Z,43.70
2022-12-11T07:36:10.864Z,40.70
2022-12-11T07:37:10.849Z,42.20
2022-12-11T07:38:10.839Z,44.50
2022-12-11T07:39:10.846Z,42.60
2022-12-11T07:40:10.836Z,38.30
2022-12-11T07:41:10.818Z,39.10
2022-12-11T07:42:10.804Z,44.60
2022-12-11T07:43:10.786Z,43.60
2022-12-11T07:44:10.796Z,47.80
2022-12-11T07:45:10.931Z,49.60
2022-12-11T07:46:10.833Z,44.30
2022-12-11T07:47:10.748Z,47.60
2022-12-11T07:48:10.748Z,48.40
2022-12-11T07:49:10.749Z,41.90
2022-12-11T07:50:10.726Z,39.90
2022-12-11T07:51:10.722Z,51.10
2022-12-11T07:52:10.700Z,54.30
2022-12-11T07:53:10.686Z,62.20
2022-12-11T07:54:10.702Z,62.80
2022-12-11T07:55:10.945Z,51.90
2022-12-11T07:56:10.670Z,50.60
2022-12-11T07:57:14.220Z,54.20
2022-12-11T07:58:10.642Z,54.20
2022-12-11T07:59:10.650Z,49.90
2022-12-11T08:00:10.630Z,51.00
2022-12-11T08:01:10.625Z,49.40
2022-12-11T08:02:10.657Z,47.20
2022-12-11T08:03:10.591Z,49.30
2022-12-11T08:04:10.606Z,43.80
2022-12-11T08:05:10.862Z,39.80
2022-12-11T08:06:10.563Z,43.80
2022-12-11T08:07:10.553Z,48.10
2022-12-11T08:08:10.592Z,43.20
2022-12-11T08:09:11.958Z,44.00
2022-12-11T08:10:10.523Z,44.10
2022-12-11T08:11:10.520Z,39.60
2022-12-11T08:12:10.504Z,41.40
2022-12-11T08:13:10.493Z,43.00
2022-12-11T08:14:10.505Z,48.90
2022-12-11T08:15:10.778Z,46.70
2022-12-11T08:16:10.464Z,41.80
2022-12-11T08:17:10.453Z,43.40
2022-12-11T08:18:10.448Z,42.00
2022-12-11T08:19:10.433Z,44.80
2022-12-11T08:20:10.445Z,41.90
2022-12-11T08:21:10.415Z,44.80
2022-12-11T08:22:10.406Z,46.20
2022-12-11T08:23:11.344Z,42.20
2022-12-11T08:24:10.389Z,38.10
2022-12-11T08:25:10.615Z,44.40
2022-12-11T08:26:10.366Z,44.20
2022-12-11T08:27:10.357Z,46.00
2022-12-11T08:28:10.347Z,44.90
2022-12-11T08:29:10.329Z,43.90
2022-12-11T08:30:10.346Z,45.30
2022-12-11T08:31:10.370Z,39.70
2022-12-11T08:32:12.481Z,47.30
2022-12-11T08:33:10.291Z,50.30
2022-12-11T08:34:10.291Z,48.50
2022-12-11T08:35:10.541Z,47.50
2022-12-11T08:36:10.290Z,47.80
2022-12-11T08:37:10.250Z,49.30
2022-12-11T08:38:10.258Z,48.20
2022-12-11T08:39:10.230Z,44.90
2022-12-11T08:40:10.243Z,49.60
2022-12-11T08:41:10.210Z,52.80
2022-12-11T08:42:10.208Z,48.90
2022-12-11T08:43:10.192Z,51.00
2022-12-11T08:44:15.807Z,49.00
2022-12-11T08:45:11.537Z,50.40
2022-12-11T08:46:10.232Z,52.30
2022-12-11T08:47:10.966Z,58.20
2022-12-11T08:48:10.142Z,51.80
2022-12-11T08:49:10.170Z,50.40
2022-12-11T08:50:10.149Z,53.50
2022-12-11T08:51:10.117Z,47.20
2022-12-11T08:52:10.120Z,49.00
2022-12-11T08:53:10.093Z,49.80
2022-12-11T08:54:10.093Z,47.20
2022-12-11T08:55:10.487Z,48.60
2022-12-11T08:56:10.072Z,50.00
2022-12-11T08:57:10.056Z,52.10
2022-12-11T08:58:10.053Z,49.50
2022-12-11T08:59:10.036Z,50.80
2022-12-11T09:00:10.045Z,45.20
2022-12-11T09:01:10.059Z,57.00
2022-12-11T09:02:10.081Z,52.70
2022-12-11T09:03:12.896Z,49.20
2022-12-11T09:04:09.993Z,47.20
2022-12-11T09:05:10.379Z,54.50
2022-12-11T09:06:09.967Z,52.90
2022-12-11T09:07:09.963Z,46.60
2022-12-11T09:08:09.994Z,53.70
2022-12-11T09:09:09.936Z,57.00
2022-12-11T09:10:09.946Z,56.10
2022-12-11T09:11:09.917Z,58.00
2022-12-11T09:12:09.908Z,116.60
2022-12-11T09:13:09.896Z,199.60
2022-12-11T09:14:09.888Z,147.60
2022-12-11T09:15:10.285Z,331.30
2022-12-11T09:16:09.900Z,300.00
2022-12-11T09:17:09.858Z,239.50
2022-12-11T09:18:09.859Z,118.50
2022-12-11T09:19:09.836Z,82.60
2022-12-11T09:20:09.849Z,58.80
2022-12-11T09:21:09.818Z,54.60
2022-12-11T09:22:09.812Z,54.10
2022-12-11T09:23:09.796Z,53.00
2022-12-11T09:24:09.791Z,49.60
2022-12-11T09:25:09.990Z,48.60
2022-12-11T09:26:09.768Z,53.00
2022-12-11T09:27:09.769Z,52.50
2022-12-11T09:28:09.742Z,51.30
2022-12-11T09:29:09.752Z,53.00
2022-12-11T09:30:09.764Z,48.00
2022-12-11T09:31:09.804Z,53.30
2022-12-11T09:32:09.711Z,53.80
2022-12-11T09:33:09.702Z,46.50
2022-12-11T09:34:09.693Z,62.70
2022-12-11T09:35:10.075Z,84.10
2022-12-11T09:36:09.663Z,89.60
2022-12-11T09:37:09.663Z,84.60
2022-12-11T09:38:09.654Z,66.00
2022-12-11T09:39:09.649Z,63.90
2022-12-11T09:40:09.654Z,60.00
2022-12-11T09:41:09.625Z,55.90
2022-12-11T09:42:09.636Z,80.70
2022-12-11T09:43:09.604Z,113.70
2022-12-11T09:44:09.587Z,102.90
2022-12-11T09:45:09.978Z,73.90
2022-12-11T09:46:09.592Z,63.00
2022-12-11T09:47:09.575Z,59.20
2022-12-11T09:48:09.556Z,51.40
2022-12-11T09:49:09.555Z,51.90
2022-12-11T09:50:09.553Z,56.80
2022-12-11T09:51:09.525Z,51.30
2022-12-11T09:52:09.509Z,57.80
2022-12-11T09:53:09.520Z,63.90
2022-12-11T09:54:09.488Z,55.00
2022-12-11T09:55:09.913Z,55.60
2022-12-11T09:56:09.477Z,63.50
2022-12-11T09:57:09.466Z,53.50
2022-12-11T09:58:09.471Z,60.20
2022-12-11T09:59:09.446Z,60.50
2022-12-11T10:00:09.450Z,58.50
2022-12-11T10:01:09.453Z,54.60
2022-12-11T10:02:09.446Z,60.90
2022-12-11T10:03:09.414Z,62.70
2022-12-11T10:04:09.389Z,55.90
2022-12-11T10:05:09.693Z,60.90
2022-12-11T10:06:09.370Z,64.70
2022-12-11T10:07:09.370Z,59.80
2022-12-11T10:08:09.386Z,57.40
2022-12-11T10:09:09.348Z,54.90
2022-12-11T10:10:09.350Z,58.70
2022-12-11T10:11:09.344Z,58.00
2022-12-11T10:12:09.312Z,58.60
2022-12-11T10:13:09.311Z,58.60
2022-12-11T10:14:09.293Z,59.90
2022-12-11T10:15:09.529Z,64.10
2022-12-11T10:16:09.309Z,54.20
2022-12-11T10:17:09.271Z,61.30
2022-12-11T10:18:09.252Z,56.90
2022-12-11T10:19:09.254Z,62.40
2022-12-11T10:20:09.252Z,59.90
2022-12-11T10:21:09.234Z,57.10
2022-12-11T10:22:09.214Z,57.20
2022-12-11T10:23:09.207Z,62.00
2022-12-11T10:24:09.193Z,62.80
2022-12-11T10:25:23.173Z,62.10
2022-12-11T10:26:10.184Z,59.10
2022-12-11T10:27:09.165Z,66.90
2022-12-11T10:28:09.154Z,65.90
2022-12-11T10:29:09.145Z,57.80
2022-12-11T10:30:09.155Z,65.30
2022-12-11T10:31:09.176Z,61.10
2022-12-11T10:32:09.117Z,61.10
2022-12-11T10:33:09.109Z,62.80
2022-12-11T10:34:09.096Z,63.50
2022-12-11T10:35:09.352Z,66.70
2022-12-11T10:36:09.068Z,60.20
2022-12-11T10:37:09.071Z,63.20
2022-12-11T10:38:09.057Z,62.20
2022-12-11T10:39:09.047Z,65.20
2022-12-11T10:40:09.049Z,71.20
2022-12-11T10:41:09.028Z,61.00
2022-12-11T10:42:09.008Z,64.90
2022-12-11T10:43:09.011Z,65.90
2022-12-11T10:44:08.999Z,65.40
2022-12-11T10:45:09.284Z,70.00
2022-12-11T10:46:09.011Z,69.00
2022-12-11T10:47:08.968Z,60.70
2022-12-11T10:48:08.957Z,65.50
2022-12-11T10:49:08.950Z,65.70
2022-12-11T10:50:08.953Z,67.20
2022-12-11T10:51:08.932Z,66.70
2022-12-11T10:52:08.910Z,62.40
2022-12-11T10:53:08.923Z,62.60
2022-12-11T10:54:08.891Z,64.80
2022-12-11T10:55:08.993Z,62.30
2022-12-11T10:56:08.881Z,59.50
2022-12-11T10:57:08.872Z,68.10
2022-12-11T10:58:08.852Z,62.10
2022-12-11T10:59:08.851Z,69.50
2022-12-11T11:00:08.867Z,62.60
2022-12-11T11:01:08.831Z,62.60
2022-12-11T11:02:08.813Z,65.30
2022-12-11T11:03:08.866Z,65.40
2022-12-11T11:04:08.803Z,65.90
2022-12-11T11:05:09.143Z,63.20
2022-12-11T11:06:08.801Z,62.40
2022-12-11T11:07:08.774Z,61.90
2022-12-11T11:08:08.793Z,65.30
2022-12-11T11:09:08.754Z,69.90
2022-12-11T11:10:08.757Z,63.60
2022-12-11T11:11:08.724Z,63.70
2022-12-11T11:12:08.725Z,66.30
2022-12-11T11:13:08.716Z,64.10
2022-12-11T11:14:08.697Z,70.10
2022-12-11T11:15:08.851Z,70.40
2022-12-11T11:16:08.720Z,61.10
2022-12-11T11:17:08.666Z,70.40
2022-12-11T11:18:08.686Z,76.40
2022-12-11T11:19:08.659Z,66.00
2022-12-11T11:20:08.656Z,70.40
2022-12-11T11:21:08.634Z,78.80
2022-12-11T11:22:08.623Z,72.60
2022-12-11T11:23:08.626Z,73.80
2022-12-11T11:24:08.606Z,64.60
2022-12-11T11:25:08.712Z,72.10
2022-12-11T11:26:08.577Z,69.20
2022-12-11T11:27:13.480Z,69.50
2022-12-11T11:28:09.559Z,69.60
2022-12-11T11:29:08.550Z,75.30
2022-12-11T11:30:08.558Z,68.90
2022-12-11T11:31:08.648Z,68.50
2022-12-11T11:32:08.519Z,64.50
2022-12-11T11:33:08.511Z,70.60
2022-12-11T11:34:08.501Z,74.10
2022-12-11T11:35:08.646Z,68.00
2022-12-11T11:36:08.478Z,66.70
2022-12-11T11:37:08.483Z,77.90
2022-12-11T11:38:08.462Z,70.90
2022-12-11T11:39:08.461Z,73.10
2022-12-11T11:40:08.452Z,70.60
2022-12-11T11:41:14.571Z,66.10
2022-12-11T11:42:09.423Z,71.30
2022-12-11T11:43:08.415Z,70.60
2022-12-11T11:44:08.402Z,73.00
2022-12-11T11:45:08.484Z,65.10
2022-12-11T11:46:08.441Z,72.20
2022-12-11T11:47:08.377Z,70.80
2022-12-11T11:48:11.541Z,68.60
2022-12-11T11:49:08.363Z,70.90
2022-12-11T11:50:08.364Z,70.20
2022-12-11T11:51:08.334Z,71.50
2022-12-11T11:52:08.324Z,82.60
2022-12-11T11:53:08.317Z,68.60
2022-12-11T11:54:08.301Z,76.80
2022-12-11T11:55:08.547Z,69.90
2022-12-11T11:56:08.274Z,73.70
2022-12-11T11:57:08.285Z,70.70
2022-12-11T11:58:08.259Z,72.10
2022-12-11T11:59:08.254Z,66.90
2022-12-11T12:00:08.275Z,71.60
2022-12-11T12:01:08.236Z,71.40
2022-12-11T12:02:08.225Z,71.70
2022-12-11T12:03:08.272Z,73.70
2022-12-11T12:04:08.197Z,70.50
2022-12-11T12:05:08.413Z,73.80
2022-12-11T12:06:13.454Z,78.80
2022-12-11T12:07:09.190Z,74.40
2022-12-11T12:08:08.194Z,81.30
2022-12-11T12:09:08.167Z,77.20
2022-12-11T12:10:08.180Z,73.90
2022-12-11T12:11:08.159Z,75.10
2022-12-11T12:12:08.128Z,78.90
2022-12-11T12:13:23.907Z,79.00
2022-12-11T12:14:22.779Z,77.00
2022-12-11T12:15:09.404Z,76.60
2022-12-11T12:16:29.292Z,78.20
2022-12-11T12:17:09.137Z,73.80
2022-12-11T12:18:08.059Z,75.80
2022-12-11T12:19:08.056Z,74.80
2022-12-11T12:20:08.038Z,68.80
2022-12-11T12:21:08.062Z,74.20
2022-12-11T12:22:08.024Z,76.90
2022-12-11T12:23:08.018Z,71.40
2022-12-11T12:24:08.002Z,74.20
2022-12-11T12:25:08.007Z,75.90
2022-12-11T12:26:08.003Z,80.00
2022-12-11T12:27:23.051Z,73.80
2022-12-11T12:28:08.961Z,75.30
2022-12-11T12:29:07.955Z,74.30
2022-12-11T12:30:07.942Z,76.00
2022-12-11T12:31:08.043Z,80.30
2022-12-11T12:32:07.923Z,74.60
2022-12-11T12:33:07.925Z,77.30
2022-12-11T12:34:07.913Z,75.00
2022-12-11T12:35:07.893Z,77.40
2022-12-11T12:36:07.900Z,77.90
2022-12-11T12:37:07.885Z,78.80
2022-12-11T12:38:07.863Z,76.40
2022-12-11T12:39:07.872Z,74.90
2022-12-11T12:40:07.843Z,74.50
2022-12-11T12:41:07.855Z,79.10
2022-12-11T12:42:08.126Z,76.40
2022-12-11T12:43:07.824Z,81.70
2022-12-11T12:44:07.824Z,78.20
2022-12-11T12:45:07.804Z,77.10
2022-12-11T12:46:07.858Z,74.90
2022-12-11T12:47:07.776Z,81.60
2022-12-11T12:48:07.764Z,74.00
2022-12-11T12:49:07.757Z,75.50
2022-12-11T12:50:07.746Z,78.50
2022-12-11T12:51:07.805Z,77.10
2022-12-11T12:52:07.736Z,79.90